createdAt,value
2023-02-22T00:00:44.861Z,3.58
2023-02-22T00:05:48.314Z,3.00
2023-02-22T00:10:51.496Z,2.80
2023-02-22T00:15:55.808Z,2.97
2023-02-22T00:21:00.258Z,3.15
2023-02-22T00:26:03.133Z,3.08
2023-02-22T00:31:07.587Z,2.78
2023-02-22T00:36:12.832Z,3.17
2023-02-22T00:41:16.142Z,2.80
2023-02-22T00:46:20.551Z,2.85
2023-02-22T00:51:26.508Z,3.00
2023-02-22T00:56:29.412Z,2.55
2023-02-22T01:01:33.700Z,2.88
2023-02-22T01:06:37.130Z,2.60
2023-02-22T01:11:41.350Z,2.90
2023-02-22T01:16:45.570Z,2.67
2023-02-22T01:21:48.922Z,2.42
2023-02-22T01:26:53.316Z,2.35
2023-02-22T01:31:57.919Z,2.58
2023-02-22T01:37:01.460Z,3.00
2023-02-22T01:42:04.401Z,2.85
2023-02-22T01:47:09.784Z,2.50
2023-02-22T01:52:19.352Z,2.13
2023-02-22T01:57:26.410Z,2.90
2023-02-22T02:02:30.676Z,2.50
2023-02-22T02:07:33.499Z,2.65
2023-02-22T02:12:37.455Z,2.92
2023-02-22T02:17:41.698Z,2.65
2023-02-22T02:22:52.645Z,2.55
2023-02-22T02:28:23.966Z,2.50
2023-02-22T02:33:32.649Z,2.30
2023-02-22T02:38:42.666Z,2.55
2023-02-22T02:43:54.483Z,2.60
2023-02-22T02:49:01.450Z,2.60
2023-02-22T02:54:05.228Z,2.78
2023-02-22T02:59:26.225Z,2.85
2023-02-22T03:04:43.449Z,2.40
2023-02-22T03:10:00.786Z,2.53
2023-02-22T03:15:14.326Z,2.58
2023-02-22T03:20:31.501Z,2.30
2023-02-22T03:25:38.567Z,2.40
2023-02-22T03:30:46.510Z,2.08
2023-02-22T03:35:56.937Z,2.63
2023-02-22T03:41:02.908Z,2.10
2023-02-22T03:46:07.356Z,2.17
2023-02-22T03:51:16.695Z,2.40
2023-02-22T03:56:24.435Z,2.30
2023-02-22T04:01:27.404Z,1.85
2023-02-22T04:06:31.946Z,2.40
2023-02-22T04:11:34.851Z,2.45
2023-02-22T04:16:37.720Z,2.63
2023-02-22T04:21:41.912Z,2.40
2023-02-22T04:26:44.930Z,2.90
2023-02-22T04:31:48.012Z,2.58
2023-02-22T04:36:52.423Z,2.70
2023-02-22T04:41:56.033Z,2.78
2023-02-22T04:46:58.898Z,3.30
2023-02-22T04:52:03.089Z,3.08
2023-02-22T04:57:05.918Z,3.08
2023-02-22T05:02:08.820Z,2.95
2023-02-22T05:07:13.064Z,3.20
2023-02-22T05:12:16.257Z,3.15
2023-02-22T05:17:19.081Z,3.65
2023-02-22T05:22:24.169Z,2.72
2023-02-22T05:27:27.018Z,2.75
2023-02-22T05:32:29.835Z,2.55
2023-02-22T05:37:34.026Z,2.72
2023-02-22T05:42:36.855Z,3.30
2023-02-22T05:47:39.692Z,3.08
2023-02-22T05:52:44.013Z,2.80
2023-02-22T05:57:47.074Z,2.53
2023-02-22T06:02:55.170Z,2.70
2023-02-22T06:07:59.976Z,2.05
2023-02-22T06:13:03.368Z,2.55
2023-02-22T06:18:06.301Z,2.50
2023-02-22T06:23:11.121Z,2.47
2023-02-22T06:28:14.317Z,2.50
2023-02-22T06:33:17.153Z,2.30
2023-02-22T06:38:25.844Z,2.42
2023-02-22T06:43:28.673Z,2.60
2023-02-22T06:48:31.563Z,2.08
2023-02-22T06:53:36.043Z,2.38
2023-02-22T06:58:38.913Z,3.00
2023-02-22T07:03:42.347Z,3.55
2023-02-22T07:08:47.635Z,2.80
2023-02-22T07:13:50.615Z,2.60
2023-02-22T07:18:53.435Z,2.33
2023-02-22T07:23:59.915Z,2.88
2023-02-22T07:29:02.749Z,3.13
2023-02-22T07:34:05.605Z,2.63
2023-02-22T07:39:10.342Z,5.10
2023-02-22T07:44:13.260Z,4.00
2023-02-22T07:49:16.358Z,3.38
2023-02-22T07:54:20.733Z,3.38
2023-02-22T07:59:23.563Z,3.00
2023-02-22T08:04:26.669Z,2.90
2023-02-22T08:09:30.814Z,3.00
2023-02-22T08:14:33.703Z,2.50
2023-02-22T08:19:36.614Z,3.78
2023-02-22T08:24:41.085Z,3.15
2023-02-22T08:29:43.876Z,3.03
2023-02-22T08:34:46.796Z,3.35
2023-02-22T08:39:51.033Z,3.03
2023-02-22T08:44:53.854Z,2.83
2023-02-22T08:49:57.051Z,3.17
2023-02-22T08:55:01.200Z,4.00
2023-02-22T09:00:05.552Z,3.40
2023-02-22T09:05:09.356Z,3.25
2023-02-22T09:10:16.449Z,3.05
2023-02-22T09:15:20.108Z,2.80
2023-02-22T09:20:24.591Z,2.72
2023-02-22T09:25:28.923Z,2.72
2023-02-22T09:30:34.284Z,2.88
2023-02-22T09:35:37.223Z,3.10
2023-02-22T09:40:45.059Z,3.67
2023-02-22T09:45:58.942Z,3.70
2023-02-22T09:51:04.891Z,3.10
2023-02-22T09:56:11.973Z,3.42
2023-02-22T10:01:24.467Z,3.45
2023-02-22T10:06:27.928Z,2.78
2023-02-22T10:11:45.108Z,2.70
2023-02-22T10:16:56.587Z,2.72
2023-02-22T10:22:29.556Z,3.20
2023-02-22T10:27:40.444Z,2.70
2023-02-22T10:32:45.577Z,2.90
2023-02-22T10:37:49.706Z,2.50
2023-02-22T10:42:54.030Z,2.78
2023-02-22T10:47:59.286Z,2.72
2023-02-22T10:53:02.362Z,2.70
2023-02-22T10:58:09.047Z,2.53
2023-02-22T11:03:19.755Z,2.50
2023-02-22T11:08:29.112Z,2.53
2023-02-22T11:13:38.386Z,2.55
2023-02-22T11:18:41.311Z,2.60
2023-02-22T11:23:45.099Z,2.65
2023-02-22T11:28:56.012Z,2.60
2023-02-22T11:34:01.067Z,2.67
2023-02-22T11:39:05.749Z,2.63
2023-02-22T11:44:25.168Z,2.40
2023-02-22T11:49:35.221Z,2.53
2023-02-22T11:55:02.025Z,2.58
2023-02-22T12:00:24.579Z,2.80
2023-02-22T12:05:44.140Z,2.58
2023-02-22T12:10:58.643Z,1.98
2023-02-22T12:16:13.035Z,2.28
2023-02-22T12:21:20.534Z,2.60
2023-02-22T12:26:30.465Z,2.25
2023-02-22T12:31:40.383Z,2.30
2023-02-22T12:36:48.262Z,2.53
2023-02-22T12:41:55.525Z,2.05
2023-02-22T12:47:02.365Z,2.25
2023-02-22T12:52:21.191Z,2.60
2023-02-22T12:57:35.816Z,2.17
2023-02-22T13:02:44.422Z,2.30
2023-02-22T13:07:56.736Z,2.20
2023-02-22T13:13:08.999Z,2.40
2023-02-22T13:18:20.014Z,2.53
2023-02-22T13:23:35.259Z,2.58
2023-02-22T13:28:44.826Z,2.10
2023-02-22T13:34:07.285Z,2.00
2023-02-22T13:39:55.476Z,2.22
2023-02-22T13:45:36.001Z,2.38
2023-02-22T13:51:03.670Z,1.90
2023-02-22T13:56:07.088Z,2.28
2023-02-22T14:01:41.755Z,2.30
2023-02-22T14:06:45.758Z,2.20
2023-02-22T14:11:54.088Z,2.30
2023-02-22T14:17:24.906Z,1.90
2023-02-22T14:22:29.977Z,1.92
2023-02-22T14:27:42.349Z,2.35
2023-02-22T14:32:48.897Z,2.20
2023-02-22T14:37:57.046Z,2.40
2023-02-22T14:43:04.214Z,2.03
2023-02-22T14:48:20.314Z,1.95
2023-02-22T14:53:32.396Z,2.10
2023-02-22T14:58:41.541Z,2.08
2023-02-22T15:03:46.295Z,2.22
2023-02-22T15:09:07.938Z,2.28
2023-02-22T15:14:25.813Z,2.05
2023-02-22T15:19:34.565Z,2.33
2023-02-22T15:24:38.740Z,2.08
2023-02-22T15:29:44.459Z,1.92
2023-02-22T15:34:48.622Z,2.15
2023-02-22T15:39:59.220Z,1.98
2023-02-22T15:45:02.251Z,2.00
2023-02-22T15:50:23.799Z,1.88
2023-02-22T15:55:30.063Z,1.58
2023-02-22T16:00:36.941Z,1.90
2023-02-22T16:05:45.426Z,2.10
2023-02-22T16:10:54.447Z,1.80
2023-02-22T16:16:02.738Z,1.80
2023-02-22T16:21:11.741Z,1.98
2023-02-22T16:26:27.807Z,1.85
2023-02-22T16:31:33.790Z,2.00
2023-02-22T16:36:43.322Z,2.00
2023-02-22T16:41:46.229Z,1.92
2023-02-22T16:46:49.040Z,1.58
2023-02-22T16:51:55.862Z,1.90
2023-02-22T16:57:01.991Z,1.70
2023-02-22T17:02:07.568Z,1.90
2023-02-22T17:07:11.770Z,2.13
2023-02-22T17:12:14.962Z,2.75
2023-02-22T17:17:18.183Z,2.30
2023-02-22T17:22:23.687Z,9.55
2023-02-22T17:27:26.560Z,12.85
2023-02-22T17:32:29.457Z,12.27
2023-02-22T17:37:33.657Z,33.97
2023-02-22T17:42:36.484Z,17.95
2023-02-22T17:47:39.312Z,15.35
2023-02-22T17:52:43.784Z,12.30
2023-02-22T17:57:46.822Z,12.18
2023-02-22T18:02:50.099Z,11.75
2023-02-22T18:07:54.339Z,11.88
2023-02-22T18:13:01.889Z,10.75
2023-02-22T18:18:06.007Z,10.73
2023-02-22T18:23:13.479Z,11.25
2023-02-22T18:28:17.803Z,11.90
2023-02-22T18:33:21.337Z,10.98
2023-02-22T18:38:25.697Z,9.80
2023-02-22T18:43:29.431Z,9.00
2023-02-22T18:48:32.771Z,8.90
2023-02-22T18:53:37.693Z,8.82
2023-02-22T18:58:43.158Z,9.45
2023-02-22T19:03:47.364Z,8.85
2023-02-22T19:08:52.289Z,8.82
2023-02-22T19:13:57.798Z,8.82
2023-02-22T19:19:00.822Z,9.15
2023-02-22T19:24:06.060Z,7.90
2023-02-22T19:29:08.996Z,7.15
2023-02-22T19:34:14.525Z,7.30
2023-02-22T19:39:20.243Z,7.43
2023-02-22T19:44:23.214Z,7.18
2023-02-22T19:49:27.808Z,7.13
2023-02-22T19:54:32.016Z,6.65
2023-02-22T19:59:34.837Z,9.05
2023-02-22T20:04:37.715Z,7.50
2023-02-22T20:09:43.217Z,6.88
2023-02-22T20:14:47.097Z,6.65
2023-02-22T20:19:50.398Z,6.55
2023-02-22T20:24:54.688Z,6.88
2023-02-22T20:29:57.489Z,6.15
2023-02-22T20:35:00.435Z,6.25
2023-02-22T20:40:05.326Z,6.05
2023-02-22T20:45:11.028Z,6.00
2023-02-22T20:50:15.194Z,6.25
2023-02-22T20:55:19.550Z,5.97
2023-02-22T21:00:22.672Z,6.85
2023-02-22T21:05:25.512Z,5.95
2023-02-22T21:10:29.653Z,5.75
2023-02-22T21:15:34.998Z,5.40
2023-02-22T21:20:40.795Z,5.68
2023-02-22T21:25:52.994Z,5.93
2023-02-22T21:30:56.067Z,5.60
2023-02-22T21:42:22.816Z,5.63
2023-02-22T21:47:25.703Z,5.38
2023-02-22T21:52:28.502Z,5.05
2023-02-22T21:57:32.731Z,5.15
2023-02-22T22:02:38.265Z,4.82
2023-02-22T22:07:44.600Z,5.28
2023-02-22T22:12:50.416Z,4.88
2023-02-22T22:17:53.283Z,5.00
2023-02-22T22:22:56.096Z,5.18
2023-02-22T22:28:00.264Z,4.97
2023-02-22T22:33:03.094Z,5.18
2023-02-22T22:38:06.656Z,4.72
2023-02-22T22:43:10.784Z,5.00
2023-02-22T22:48:15.010Z,4.50
2023-02-22T22:53:18.699Z,4.78
2023-02-22T22:58:22.864Z,4.88
2023-02-22T23:03:26.260Z,4.80
2023-02-22T23:08:29.362Z,4.65
2023-02-22T23:13:33.810Z,4.95
2023-02-22T23:18:36.617Z,4.45
2023-02-22T23:23:51.534Z,4.90
2023-02-22T23:28:56.003Z,4.45
2023-02-22T23:33:59.946Z,4.72
2023-02-22T23:39:04.282Z,5.20
2023-02-22T23:44:08.545Z,4.20
2023-02-22T23:49:11.869Z,4.90
2023-02-22T23:54:19.235Z,4.60
2023-02-22T23:59:22.055Z,4.97
